sensor_id;sensor_type;location;lat;lon;timestamp;P1;durP1;ratioP1;P2;durP2;ratioP2
5608;SDS011;2826;51.354;9.588;2023-04-24T00:02:19;1.50;;;1.40;;
5608;SDS011;2826;51.354;9.588;2023-04-24T00:04:47;1.50;;;1.40;;
5608;SDS011;2826;51.354;9.588;2023-04-24T00:07:15;1.20;;;1.10;;
5608;SDS011;2826;51.354;9.588;2023-04-24T00:09:42;1.43;;;1.30;;
5608;SDS011;2826;51.354;9.588;2023-04-24T00:12:09;1.13;;;1.03;;
5608;SDS011;2826;51.354;9.588;2023-04-24T00:14:36;4.10;;;1.50;;
5608;SDS011;2826;51.354;9.588;2023-04-24T00:17:02;1.40;;;1.30;;
5608;SDS011;2826;51.354;9.588;2023-04-24T00:19:29;2.20;;;1.50;;
5608;SDS011;2826;51.354;9.588;2023-04-24T00:21:55;1.53;;;1.10;;
5608;SDS011;2826;51.354;9.588;2023-04-24T00:24:23;1.80;;;1.50;;
5608;SDS011;2826;51.354;9.588;2023-04-24T00:26:49;1.30;;;1.20;;
5608;SDS011;2826;51.354;9.588;2023-04-24T00:29:16;2.03;;;1.27;;
5608;SDS011;2826;51.354;9.588;2023-04-24T00:31:43;3.83;;;1.30;;
5608;SDS011;2826;51.354;9.588;2023-04-24T00:34:09;1.50;;;1.40;;
5608;SDS011;2826;51.354;9.588;2023-04-24T00:36:36;1.57;;;1.30;;
5608;SDS011;2826;51.354;9.588;2023-04-24T00:39:03;2.83;;;1.40;;
5608;SDS011;2826;51.354;9.588;2023-04-24T00:41:31;2.40;;;1.50;;
5608;SDS011;2826;51.354;9.588;2023-04-24T00:43:58;1.47;;;1.20;;
5608;SDS011;2826;51.354;9.588;2023-04-24T00:46:24;1.40;;;1.30;;
5608;SDS011;2826;51.354;9.588;2023-04-24T00:48:51;1.30;;;1.20;;
5608;SDS011;2826;51.354;9.588;2023-04-24T00:51:17;2.10;;;1.30;;
5608;SDS011;2826;51.354;9.588;2023-04-24T00:53:45;3.33;;;1.30;;
5608;SDS011;2826;51.354;9.588;2023-04-24T00:56:12;2.67;;;1.17;;
5608;SDS011;2826;51.354;9.588;2023-04-24T00:58:40;2.03;;;1.07;;
5608;SDS011;2826;51.354;9.588;2023-04-24T01:01:08;1.70;;;1.60;;
5608;SDS011;2826;51.354;9.588;2023-04-24T01:03:36;1.63;;;1.40;;
5608;SDS011;2826;51.354;9.588;2023-04-24T01:06:04;1.90;;;1.37;;
5608;SDS011;2826;51.354;9.588;2023-04-24T01:08:31;1.10;;;1.00;;
5608;SDS011;2826;51.354;9.588;2023-04-24T01:11:01;1.13;;;1.03;;
5608;SDS011;2826;51.354;9.588;2023-04-24T01:13:30;2.40;;;1.70;;
5608;SDS011;2826;51.354;9.588;2023-04-24T01:15:59;2.03;;;1.43;;
5608;SDS011;2826;51.354;9.588;2023-04-24T01:18:26;1.30;;;1.13;;
5608;SDS011;2826;51.354;9.588;2023-04-24T01:20:53;3.10;;;1.40;;
5608;SDS011;2826;51.354;9.588;2023-04-24T01:23:24;1.20;;;1.10;;
5608;SDS011;2826;51.354;9.588;2023-04-24T01:25:51;3.43;;;1.50;;
5608;SDS011;2826;51.354;9.588;2023-04-24T01:28:18;2.90;;;1.40;;
5608;SDS011;2826;51.354;9.588;2023-04-24T01:30:45;1.30;;;1.20;;
5608;SDS011;2826;51.354;9.588;2023-04-24T01:33:11;2.17;;;1.17;;
5608;SDS011;2826;51.354;9.588;2023-04-24T01:35:39;1.63;;;1.07;;
5608;SDS011;2826;51.354;9.588;2023-04-24T01:38:06;1.77;;;1.67;;
5608;SDS011;2826;51.354;9.588;2023-04-24T01:40:36;6.63;;;1.33;;
5608;SDS011;2826;51.354;9.588;2023-04-24T01:43:02;1.07;;;0.97;;
5608;SDS011;2826;51.354;9.588;2023-04-24T01:45:29;1.37;;;1.17;;
5608;SDS011;2826;51.354;9.588;2023-04-24T01:47:56;1.23;;;1.10;;
5608;SDS011;2826;51.354;9.588;2023-04-24T01:50:23;1.17;;;0.90;;
5608;SDS011;2826;51.354;9.588;2023-04-24T01:52:49;1.27;;;1.00;;
5608;SDS011;2826;51.354;9.588;2023-04-24T01:55:16;1.30;;;1.10;;
5608;SDS011;2826;51.354;9.588;2023-04-24T01:57:45;3.63;;;1.27;;
5608;SDS011;2826;51.354;9.588;2023-04-24T02:00:12;1.77;;;1.10;;
5608;SDS011;2826;51.354;9.588;2023-04-24T02:02:40;2.90;;;1.17;;
5608;SDS011;2826;51.354;9.588;2023-04-24T02:05:07;1.43;;;1.27;;
5608;SDS011;2826;51.354;9.588;2023-04-24T02:07:38;1.80;;;1.37;;
5608;SDS011;2826;51.354;9.588;2023-04-24T02:10:05;1.40;;;1.10;;
5608;SDS011;2826;51.354;9.588;2023-04-24T02:12:32;1.30;;;1.20;;
5608;SDS011;2826;51.354;9.588;2023-04-24T02:15:00;2.13;;;1.20;;
5608;SDS011;2826;51.354;9.588;2023-04-24T02:17:27;1.70;;;1.60;;
5608;SDS011;2826;51.354;9.588;2023-04-24T02:19:56;1.50;;;1.40;;
5608;SDS011;2826;51.354;9.588;2023-04-24T02:22:22;2.03;;;1.27;;
5608;SDS011;2826;51.354;9.588;2023-04-24T02:24:49;2.13;;;1.93;;
5608;SDS011;2826;51.354;9.588;2023-04-24T02:27:16;1.60;;;1.50;;
5608;SDS011;2826;51.354;9.588;2023-04-24T02:29:42;3.80;;;1.60;;
5608;SDS011;2826;51.354;9.588;2023-04-24T02:32:11;2.40;;;1.40;;
5608;SDS011;2826;51.354;9.588;2023-04-24T02:34:37;1.93;;;1.60;;
5608;SDS011;2826;51.354;9.588;2023-04-24T02:37:05;3.20;;;1.40;;
5608;SDS011;2826;51.354;9.588;2023-04-24T02:39:31;1.83;;;1.57;;
5608;SDS011;2826;51.354;9.588;2023-04-24T02:41:58;5.60;;;1.80;;
5608;SDS011;2826;51.354;9.588;2023-04-24T02:44:25;3.43;;;2.10;;
5608;SDS011;2826;51.354;9.588;2023-04-24T02:46:51;1.40;;;1.30;;
5608;SDS011;2826;51.354;9.588;2023-04-24T02:49:19;1.70;;;1.60;;
5608;SDS011;2826;51.354;9.588;2023-04-24T02:51:46;1.57;;;1.47;;
5608;SDS011;2826;51.354;9.588;2023-04-24T02:54:12;2.30;;;1.43;;
5608;SDS011;2826;51.354;9.588;2023-04-24T02:56:40;3.80;;;1.70;;
5608;SDS011;2826;51.354;9.588;2023-04-24T02:59:08;1.60;;;1.50;;
5608;SDS011;2826;51.354;9.588;2023-04-24T03:01:35;2.30;;;1.60;;
5608;SDS011;2826;51.354;9.588;2023-04-24T03:04:02;1.50;;;1.40;;
5608;SDS011;2826;51.354;9.588;2023-04-24T03:06:30;3.20;;;1.40;;
5608;SDS011;2826;51.354;9.588;2023-04-24T03:08:57;1.50;;;1.40;;
5608;SDS011;2826;51.354;9.588;2023-04-24T03:11:24;2.80;;;1.63;;
5608;SDS011;2826;51.354;9.588;2023-04-24T03:13:51;2.03;;;1.57;;
5608;SDS011;2826;51.354;9.588;2023-04-24T03:16:18;2.13;;;1.67;;
5608;SDS011;2826;51.354;9.588;2023-04-24T03:18:45;1.50;;;1.40;;
5608;SDS011;2826;51.354;9.588;2023-04-24T03:21:12;3.77;;;1.70;;
5608;SDS011;2826;51.354;9.588;2023-04-24T03:23:41;2.40;;;1.70;;
5608;SDS011;2826;51.354;9.588;2023-04-24T03:26:09;1.43;;;1.33;;
5608;SDS011;2826;51.354;9.588;2023-04-24T03:28:39;3.73;;;1.53;;
5608;SDS011;2826;51.354;9.588;2023-04-24T03:31:07;3.97;;;1.73;;
5608;SDS011;2826;51.354;9.588;2023-04-24T03:33:35;1.70;;;1.47;;
5608;SDS011;2826;51.354;9.588;2023-04-24T03:36:02;2.40;;;1.80;;
5608;SDS011;2826;51.354;9.588;2023-04-24T03:38:38;2.60;;;1.47;;
5608;SDS011;2826;51.354;9.588;2023-04-24T03:41:20;1.77;;;1.60;;
5608;SDS011;2826;51.354;9.588;2023-04-24T03:43:51;2.53;;;1.60;;
5608;SDS011;2826;51.354;9.588;2023-04-24T03:46:17;3.80;;;1.80;;
5608;SDS011;2826;51.354;9.588;2023-04-24T03:48:50;3.27;;;1.50;;
5608;SDS011;2826;51.354;9.588;2023-04-24T03:51:20;3.33;;;2.27;;
5608;SDS011;2826;51.354;9.588;2023-04-24T03:53:51;5.73;;;1.93;;
5608;SDS011;2826;51.354;9.588;2023-04-24T03:56:22;6.33;;;1.80;;
5608;SDS011;2826;51.354;9.588;2023-04-24T03:58:48;3.20;;;1.60;;
5608;SDS011;2826;51.354;9.588;2023-04-24T04:01:15;2.90;;;1.57;;
5608;SDS011;2826;51.354;9.588;2023-04-24T04:03:57;2.00;;;1.77;;
5608;SDS011;2826;51.354;9.588;2023-04-24T04:06:26;1.77;;;1.60;;
5608;SDS011;2826;51.354;9.588;2023-04-24T04:08:54;7.20;;;1.87;;
5608;SDS011;2826;51.354;9.588;2023-04-24T04:11:22;2.07;;;1.60;;
5608;SDS011;2826;51.354;9.588;2023-04-24T04:13:49;2.70;;;1.70;;
5608;SDS011;2826;51.354;9.588;2023-04-24T04:16:19;2.77;;;2.07;;
5608;SDS011;2826;51.354;9.588;2023-04-24T04:18:48;3.77;;;1.60;;
5608;SDS011;2826;51.354;9.588;2023-04-24T04:21:14;2.00;;;1.80;;
5608;SDS011;2826;51.354;9.588;2023-04-24T04:23:42;2.50;;;1.50;;
5608;SDS011;2826;51.354;9.588;2023-04-24T04:26:19;1.70;;;1.60;;
5608;SDS011;2826;51.354;9.588;2023-04-24T04:29:05;1.97;;;1.87;;
5608;SDS011;2826;51.354;9.588;2023-04-24T04:31:33;1.90;;;1.70;;
5608;SDS011;2826;51.354;9.588;2023-04-24T04:34:04;2.13;;;1.67;;
5608;SDS011;2826;51.354;9.588;2023-04-24T04:36:33;2.50;;;1.90;;
5608;SDS011;2826;51.354;9.588;2023-04-24T04:39:15;2.07;;;1.60;;
5608;SDS011;2826;51.354;9.588;2023-04-24T04:41:51;2.40;;;1.47;;
5608;SDS011;2826;51.354;9.588;2023-04-24T04:44:21;2.20;;;1.97;;
5608;SDS011;2826;51.354;9.588;2023-04-24T04:46:50;1.50;;;1.40;;
5608;SDS011;2826;51.354;9.588;2023-04-24T04:49:25;1.60;;;1.50;;
5608;SDS011;2826;51.354;9.588;2023-04-24T04:51:54;1.70;;;1.60;;
5608;SDS011;2826;51.354;9.588;2023-04-24T04:54:22;1.60;;;1.50;;
5608;SDS011;2826;51.354;9.588;2023-04-24T04:56:49;3.23;;;1.57;;
5608;SDS011;2826;51.354;9.588;2023-04-24T04:59:16;2.00;;;1.80;;
5608;SDS011;2826;51.354;9.588;2023-04-24T05:01:45;2.40;;;1.60;;
5608;SDS011;2826;51.354;9.588;2023-04-24T05:04:12;2.17;;;1.73;;
5608;SDS011;2826;51.354;9.588;2023-04-24T05:06:40;1.83;;;1.73;;
5608;SDS011;2826;51.354;9.588;2023-04-24T05:09:08;1.80;;;1.53;;
5608;SDS011;2826;51.354;9.588;2023-04-24T05:11:45;5.50;;;1.70;;
5608;SDS011;2826;51.354;9.588;2023-04-24T05:14:12;1.93;;;1.73;;
5608;SDS011;2826;51.354;9.588;2023-04-24T05:16:39;8.87;;;2.00;;
5608;SDS011;2826;51.354;9.588;2023-04-24T05:19:09;4.13;;;1.47;;
5608;SDS011;2826;51.354;9.588;2023-04-24T05:21:39;3.10;;;1.97;;
5608;SDS011;2826;51.354;9.588;2023-04-24T05:24:07;1.87;;;1.43;;
5608;SDS011;2826;51.354;9.588;2023-04-24T05:26:54;2.60;;;1.93;;
5608;SDS011;2826;51.354;9.588;2023-04-24T05:29:27;3.63;;;1.60;;
5608;SDS011;2826;51.354;9.588;2023-04-24T05:31:56;2.03;;;1.83;;
5608;SDS011;2826;51.354;9.588;2023-04-24T05:34:24;2.10;;;1.80;;
5608;SDS011;2826;51.354;9.588;2023-04-24T05:36:54;2.47;;;1.53;;
5608;SDS011;2826;51.354;9.588;2023-04-24T05:39:21;3.13;;;1.80;;
5608;SDS011;2826;51.354;9.588;2023-04-24T05:41:50;2.87;;;1.83;;
5608;SDS011;2826;51.354;9.588;2023-04-24T05:44:17;1.73;;;1.63;;
5608;SDS011;2826;51.354;9.588;2023-04-24T05:46:43;3.20;;;1.90;;
5608;SDS011;2826;51.354;9.588;2023-04-24T05:49:10;2.33;;;2.10;;
5608;SDS011;2826;51.354;9.588;2023-04-24T05:51:38;2.43;;;2.13;;
5608;SDS011;2826;51.354;9.588;2023-04-24T05:54:05;4.00;;;2.40;;
5608;SDS011;2826;51.354;9.588;2023-04-24T05:56:32;4.07;;;2.60;;
5608;SDS011;2826;51.354;9.588;2023-04-24T05:59:01;2.43;;;2.23;;
5608;SDS011;2826;51.354;9.588;2023-04-24T06:01:29;2.33;;;2.00;;
5608;SDS011;2826;51.354;9.588;2023-04-24T06:04:05;2.10;;;1.90;;
5608;SDS011;2826;51.354;9.588;2023-04-24T06:06:32;2.20;;;2.00;;
5608;SDS011;2826;51.354;9.588;2023-04-24T06:09:00;2.10;;;1.90;;
5608;SDS011;2826;51.354;9.588;2023-04-24T06:11:28;3.00;;;1.87;;
5608;SDS011;2826;51.354;9.588;2023-04-24T06:13:55;2.27;;;2.07;;
5608;SDS011;2826;51.354;9.588;2023-04-24T06:16:56;3.00;;;2.20;;
5608;SDS011;2826;51.354;9.588;2023-04-24T06:19:33;2.70;;;2.50;;
5608;SDS011;2826;51.354;9.588;2023-04-24T06:22:01;2.80;;;2.30;;
5608;SDS011;2826;51.354;9.588;2023-04-24T06:24:29;3.03;;;2.70;;
5608;SDS011;2826;51.354;9.588;2023-04-24T06:26:57;3.87;;;2.60;;
5608;SDS011;2826;51.354;9.588;2023-04-24T06:29:24;2.73;;;2.53;;
5608;SDS011;2826;51.354;9.588;2023-04-24T06:31:51;3.53;;;2.90;;
5608;SDS011;2826;51.354;9.588;2023-04-24T06:34:18;3.30;;;3.00;;
5608;SDS011;2826;51.354;9.588;2023-04-24T06:36:46;3.57;;;3.27;;
5608;SDS011;2826;51.354;9.588;2023-04-24T06:39:13;3.60;;;2.97;;
5608;SDS011;2826;51.354;9.588;2023-04-24T06:41:41;4.97;;;2.90;;
5608;SDS011;2826;51.354;9.588;2023-04-24T06:44:17;5.27;;;4.07;;
5608;SDS011;2826;51.354;9.588;2023-04-24T06:46:44;4.53;;;3.57;;
5608;SDS011;2826;51.354;9.588;2023-04-24T06:49:10;3.10;;;2.80;;
5608;SDS011;2826;51.354;9.588;2023-04-24T06:51:37;4.80;;;3.27;;
5608;SDS011;2826;51.354;9.588;2023-04-24T06:54:03;6.70;;;3.57;;
5608;SDS011;2826;51.354;9.588;2023-04-24T06:56:30;3.23;;;2.77;;
5608;SDS011;2826;51.354;9.588;2023-04-24T06:58:58;5.70;;;3.37;;
5608;SDS011;2826;51.354;9.588;2023-04-24T07:01:24;4.90;;;2.97;;
5608;SDS011;2826;51.354;9.588;2023-04-24T07:03:51;2.70;;;2.50;;
5608;SDS011;2826;51.354;9.588;2023-04-24T07:06:18;4.70;;;2.80;;
5608;SDS011;2826;51.354;9.588;2023-04-24T07:08:47;4.10;;;2.83;;
5608;SDS011;2826;51.354;9.588;2023-04-24T07:11:14;4.70;;;3.20;;
5608;SDS011;2826;51.354;9.588;2023-04-24T07:13:41;2.93;;;2.73;;
5608;SDS011;2826;51.354;9.588;2023-04-24T07:16:08;6.33;;;3.13;;
5608;SDS011;2826;51.354;9.588;2023-04-24T07:18:35;5.20;;;2.70;;
5608;SDS011;2826;51.354;9.588;2023-04-24T07:21:02;7.00;;;2.50;;
5608;SDS011;2826;51.354;9.588;2023-04-24T07:23:29;3.60;;;2.73;;
5608;SDS011;2826;51.354;9.588;2023-04-24T07:25:58;2.93;;;2.40;;
5608;SDS011;2826;51.354;9.588;2023-04-24T07:28:24;3.43;;;2.97;;
5608;SDS011;2826;51.354;9.588;2023-04-24T07:30:51;3.00;;;2.63;;
5608;SDS011;2826;51.354;9.588;2023-04-24T07:33:20;3.90;;;2.40;;
5608;SDS011;2826;51.354;9.588;2023-04-24T07:35:46;3.57;;;2.40;;
5608;SDS011;2826;51.354;9.588;2023-04-24T07:38:13;6.47;;;2.80;;
5608;SDS011;2826;51.354;9.588;2023-04-24T07:40:40;3.03;;;2.73;;
5608;SDS011;2826;51.354;9.588;2023-04-24T07:43:06;5.27;;;2.97;;
5608;SDS011;2826;51.354;9.588;2023-04-24T07:45:33;5.40;;;2.83;;
5608;SDS011;2826;51.354;9.588;2023-04-24T07:48:02;4.43;;;2.67;;
5608;SDS011;2826;51.354;9.588;2023-04-24T07:50:30;5.83;;;3.20;;
5608;SDS011;2826;51.354;9.588;2023-04-24T07:52:56;4.30;;;3.10;;
5608;SDS011;2826;51.354;9.588;2023-04-24T07:55:23;3.07;;;2.80;;
5608;SDS011;2826;51.354;9.588;2023-04-24T07:57:50;4.00;;;3.33;;
5608;SDS011;2826;51.354;9.588;2023-04-24T08:00:17;2.80;;;2.60;;
5608;SDS011;2826;51.354;9.588;2023-04-24T08:02:44;3.97;;;3.00;;
5608;SDS011;2826;51.354;9.588;2023-04-24T08:05:11;4.00;;;3.20;;
5608;SDS011;2826;51.354;9.588;2023-04-24T08:07:39;5.53;;;2.90;;
5608;SDS011;2826;51.354;9.588;2023-04-24T08:10:09;2.60;;;2.40;;
5608;SDS011;2826;51.354;9.588;2023-04-24T08:12:36;5.53;;;3.83;;
5608;SDS011;2826;51.354;9.588;2023-04-24T08:15:03;7.83;;;3.37;;
5608;SDS011;2826;51.354;9.588;2023-04-24T08:17:31;4.43;;;3.30;;
5608;SDS011;2826;51.354;9.588;2023-04-24T08:19:57;4.50;;;3.53;;
5608;SDS011;2826;51.354;9.588;2023-04-24T08:22:28;3.80;;;3.13;;
5608;SDS011;2826;51.354;9.588;2023-04-24T08:24:56;4.33;;;3.20;;
5608;SDS011;2826;51.354;9.588;2023-04-24T08:27:23;4.33;;;3.40;;
5608;SDS011;2826;51.354;9.588;2023-04-24T08:29:49;3.50;;;2.90;;
5608;SDS011;2826;51.354;9.588;2023-04-24T08:32:16;4.00;;;3.20;;
5608;SDS011;2826;51.354;9.588;2023-04-24T08:34:43;3.40;;;3.10;;
5608;SDS011;2826;51.354;9.588;2023-04-24T08:37:09;3.30;;;3.00;;
5608;SDS011;2826;51.354;9.588;2023-04-24T08:39:36;3.33;;;3.03;;
5608;SDS011;2826;51.354;9.588;2023-04-24T08:42:04;3.60;;;3.20;;
5608;SDS011;2826;51.354;9.588;2023-04-24T08:44:33;6.07;;;3.30;;
5608;SDS011;2826;51.354;9.588;2023-04-24T08:47:02;4.27;;;3.60;;
5608;SDS011;2826;51.354;9.588;2023-04-24T08:49:29;3.47;;;3.17;;
5608;SDS011;2826;51.354;9.588;2023-04-24T08:51:56;4.50;;;3.37;;
5608;SDS011;2826;51.354;9.588;2023-04-24T08:54:25;3.37;;;2.87;;
5608;SDS011;2826;51.354;9.588;2023-04-24T08:56:53;3.50;;;3.20;;
5608;SDS011;2826;51.354;9.588;2023-04-24T08:59:27;3.00;;;2.73;;
5608;SDS011;2826;51.354;9.588;2023-04-24T09:01:54;5.37;;;3.00;;
5608;SDS011;2826;51.354;9.588;2023-04-24T09:04:21;3.80;;;3.23;;
5608;SDS011;2826;51.354;9.588;2023-04-24T09:06:49;5.80;;;3.10;;
5608;SDS011;2826;51.354;9.588;2023-04-24T09:09:16;3.20;;;2.90;;
5608;SDS011;2826;51.354;9.588;2023-04-24T09:11:44;9.43;;;3.97;;
5608;SDS011;2826;51.354;9.588;2023-04-24T09:14:11;5.57;;;3.27;;
5608;SDS011;2826;51.354;9.588;2023-04-24T09:16:39;4.17;;;3.20;;
5608;SDS011;2826;51.354;9.588;2023-04-24T09:19:06;4.33;;;3.00;;
5608;SDS011;2826;51.354;9.588;2023-04-24T09:21:33;4.40;;;3.27;;
5608;SDS011;2826;51.354;9.588;2023-04-24T09:24:01;5.13;;;3.43;;
5608;SDS011;2826;51.354;9.588;2023-04-24T09:26:29;4.10;;;2.70;;
5608;SDS011;2826;51.354;9.588;2023-04-24T09:28:58;6.33;;;3.20;;
5608;SDS011;2826;51.354;9.588;2023-04-24T09:31:26;2.87;;;2.57;;
5608;SDS011;2826;51.354;9.588;2023-04-24T09:33:55;5.33;;;2.80;;
5608;SDS011;2826;51.354;9.588;2023-04-24T09:36:28;4.47;;;2.70;;
5608;SDS011;2826;51.354;9.588;2023-04-24T09:38:58;2.90;;;2.70;;
5608;SDS011;2826;51.354;9.588;2023-04-24T09:41:26;4.70;;;3.50;;
5608;SDS011;2826;51.354;9.588;2023-04-24T09:43:54;3.53;;;3.23;;
5608;SDS011;2826;51.354;9.588;2023-04-24T09:46:21;4.10;;;3.10;;
5608;SDS011;2826;51.354;9.588;2023-04-24T09:48:56;3.70;;;2.90;;
5608;SDS011;2826;51.354;9.588;2023-04-24T09:51:33;3.83;;;3.30;;
5608;SDS011;2826;51.354;9.588;2023-04-24T09:54:01;4.70;;;3.40;;
5608;SDS011;2826;51.354;9.588;2023-04-24T09:56:29;5.77;;;3.60;;
5608;SDS011;2826;51.354;9.588;2023-04-24T09:59:03;9.03;;;3.60;;
5608;SDS011;2826;51.354;9.588;2023-04-24T10:01:31;2.77;;;2.57;;
5608;SDS011;2826;51.354;9.588;2023-04-24T10:03:59;2.87;;;2.40;;
5608;SDS011;2826;51.354;9.588;2023-04-24T10:06:29;3.27;;;2.97;;
5608;SDS011;2826;51.354;9.588;2023-04-24T10:08:57;3.40;;;3.10;;
5608;SDS011;2826;51.354;9.588;2023-04-24T10:11:25;3.00;;;2.70;;
5608;SDS011;2826;51.354;9.588;2023-04-24T10:13:52;4.00;;;3.10;;
5608;SDS011;2826;51.354;9.588;2023-04-24T10:16:21;4.30;;;2.93;;
5608;SDS011;2826;51.354;9.588;2023-04-24T10:18:48;3.30;;;3.00;;
5608;SDS011;2826;51.354;9.588;2023-04-24T10:21:17;3.43;;;3.13;;
5608;SDS011;2826;51.354;9.588;2023-04-24T10:23:44;3.47;;;2.80;;
5608;SDS011;2826;51.354;9.588;2023-04-24T10:26:12;4.73;;;2.60;;
5608;SDS011;2826;51.354;9.588;2023-04-24T10:28:43;5.20;;;3.13;;
5608;SDS011;2826;51.354;9.588;2023-04-24T10:31:10;2.60;;;2.40;;
5608;SDS011;2826;51.354;9.588;2023-04-24T10:33:38;7.60;;;2.73;;
5608;SDS011;2826;51.354;9.588;2023-04-24T10:36:07;5.23;;;3.47;;
5608;SDS011;2826;51.354;9.588;2023-04-24T10:38:37;3.43;;;2.80;;
5608;SDS011;2826;51.354;9.588;2023-04-24T10:41:07;4.33;;;3.00;;
5608;SDS011;2826;51.354;9.588;2023-04-24T10:43:35;2.80;;;2.37;;
5608;SDS011;2826;51.354;9.588;2023-04-24T10:46:02;4.60;;;2.70;;
5608;SDS011;2826;51.354;9.588;2023-04-24T10:48:30;2.50;;;2.27;;
5608;SDS011;2826;51.354;9.588;2023-04-24T10:50:58;3.00;;;2.80;;
5608;SDS011;2826;51.354;9.588;2023-04-24T10:53:27;5.63;;;2.03;;
5608;SDS011;2826;51.354;9.588;2023-04-24T10:55:58;2.53;;;2.23;;
5608;SDS011;2826;51.354;9.588;2023-04-24T10:58:35;3.53;;;2.40;;
5608;SDS011;2826;51.354;9.588;2023-04-24T11:01:03;2.50;;;2.30;;
5608;SDS011;2826;51.354;9.588;2023-04-24T11:03:31;4.07;;;1.97;;
5608;SDS011;2826;51.354;9.588;2023-04-24T11:06:00;2.33;;;2.23;;
5608;SDS011;2826;51.354;9.588;2023-04-24T11:08:29;2.47;;;2.27;;
5608;SDS011;2826;51.354;9.588;2023-04-24T11:11:02;2.80;;;2.10;;
5608;SDS011;2826;51.354;9.588;2023-04-24T11:16:33;2.20;;;2.00;;
5608;SDS011;2826;51.354;9.588;2023-04-24T11:19:04;2.40;;;2.13;;
5608;SDS011;2826;51.354;9.588;2023-04-24T11:21:33;3.10;;;2.40;;
5608;SDS011;2826;51.354;9.588;2023-04-24T11:24:23;3.20;;;2.90;;
5608;SDS011;2826;51.354;9.588;2023-04-24T11:27:13;2.23;;;1.97;;
5608;SDS011;2826;51.354;9.588;2023-04-24T11:29:42;2.33;;;2.13;;
5608;SDS011;2826;51.354;9.588;2023-04-24T11:32:24;2.93;;;1.80;;
5608;SDS011;2826;51.354;9.588;2023-04-24T11:34:52;2.00;;;1.80;;
5608;SDS011;2826;51.354;9.588;2023-04-24T11:37:21;1.77;;;1.40;;
5608;SDS011;2826;51.354;9.588;2023-04-24T11:39:50;1.20;;;1.10;;
5608;SDS011;2826;51.354;9.588;2023-04-24T11:42:19;3.20;;;2.63;;
5608;SDS011;2826;51.354;9.588;2023-04-24T11:44:47;1.07;;;0.97;;
5608;SDS011;2826;51.354;9.588;2023-04-24T11:47:14;1.10;;;0.90;;
5608;SDS011;2826;51.354;9.588;2023-04-24T11:49:40;1.00;;;0.90;;
5608;SDS011;2826;51.354;9.588;2023-04-24T11:52:07;1.33;;;0.90;;
5608;SDS011;2826;51.354;9.588;2023-04-24T11:54:33;1.43;;;1.00;;
5608;SDS011;2826;51.354;9.588;2023-04-24T11:57:03;3.37;;;0.90;;
5608;SDS011;2826;51.354;9.588;2023-04-24T11:59:36;0.73;;;0.60;;
5608;SDS011;2826;51.354;9.588;2023-04-24T12:02:03;0.80;;;0.70;;
5608;SDS011;2826;51.354;9.588;2023-04-24T12:04:38;0.80;;;0.70;;
5608;SDS011;2826;51.354;9.588;2023-04-24T12:07:05;0.80;;;0.67;;
5608;SDS011;2826;51.354;9.588;2023-04-24T12:09:40;0.70;;;0.67;;
5608;SDS011;2826;51.354;9.588;2023-04-24T12:12:08;0.90;;;0.73;;
5608;SDS011;2826;51.354;9.588;2023-04-24T12:14:42;1.20;;;0.83;;
5608;SDS011;2826;51.354;9.588;2023-04-24T12:17:10;3.13;;;0.97;;
5608;SDS011;2826;51.354;9.588;2023-04-24T12:19:37;0.80;;;0.70;;
5608;SDS011;2826;51.354;9.588;2023-04-24T12:22:04;22.20;;;1.13;;
5608;SDS011;2826;51.354;9.588;2023-04-24T12:24:31;1.40;;;0.87;;
5608;SDS011;2826;51.354;9.588;2023-04-24T12:26:58;0.80;;;0.73;;
5608;SDS011;2826;51.354;9.588;2023-04-24T12:29:26;0.77;;;0.60;;
5608;SDS011;2826;51.354;9.588;2023-04-24T12:31:54;0.70;;;0.60;;
5608;SDS011;2826;51.354;9.588;2023-04-24T12:34:22;0.90;;;0.80;;
5608;SDS011;2826;51.354;9.588;2023-04-24T12:36:50;0.90;;;0.80;;
5608;SDS011;2826;51.354;9.588;2023-04-24T12:39:16;0.80;;;0.73;;
5608;SDS011;2826;51.354;9.588;2023-04-24T12:41:51;0.80;;;0.70;;
5608;SDS011;2826;51.354;9.588;2023-04-24T12:44:28;1.27;;;1.17;;
5608;SDS011;2826;51.354;9.588;2023-04-24T12:46:57;0.80;;;0.70;;
5608;SDS011;2826;51.354;9.588;2023-04-24T12:49:24;0.77;;;0.63;;
5608;SDS011;2826;51.354;9.588;2023-04-24T12:51:50;0.80;;;0.70;;
5608;SDS011;2826;51.354;9.588;2023-04-24T12:54:17;0.80;;;0.70;;
5608;SDS011;2826;51.354;9.588;2023-04-24T12:56:43;0.70;;;0.60;;
5608;SDS011;2826;51.354;9.588;2023-04-24T12:59:11;0.70;;;0.60;;
5608;SDS011;2826;51.354;9.588;2023-04-24T13:01:38;0.80;;;0.70;;
5608;SDS011;2826;51.354;9.588;2023-04-24T13:04:06;1.00;;;0.70;;
5608;SDS011;2826;51.354;9.588;2023-04-24T13:06:32;1.50;;;0.80;;
5608;SDS011;2826;51.354;9.588;2023-04-24T13:08:59;0.70;;;0.60;;
5608;SDS011;2826;51.354;9.588;2023-04-24T13:11:26;0.70;;;0.60;;
5608;SDS011;2826;51.354;9.588;2023-04-24T13:13:54;0.90;;;0.60;;
5608;SDS011;2826;51.354;9.588;2023-04-24T13:16:21;0.80;;;0.70;;
5608;SDS011;2826;51.354;9.588;2023-04-24T13:18:48;0.80;;;0.70;;
5608;SDS011;2826;51.354;9.588;2023-04-24T13:21:16;1.00;;;0.60;;
5608;SDS011;2826;51.354;9.588;2023-04-24T13:23:43;0.77;;;0.70;;
5608;SDS011;2826;51.354;9.588;2023-04-24T13:26:10;1.10;;;0.63;;
5608;SDS011;2826;51.354;9.588;2023-04-24T13:28:36;0.80;;;0.80;;
5608;SDS011;2826;51.354;9.588;2023-04-24T13:31:03;0.80;;;0.70;;
5608;SDS011;2826;51.354;9.588;2023-04-24T13:33:31;0.77;;;0.70;;
5608;SDS011;2826;51.354;9.588;2023-04-24T13:35:58;0.93;;;0.83;;
5608;SDS011;2826;51.354;9.588;2023-04-24T13:38:26;0.87;;;0.80;;
5608;SDS011;2826;51.354;9.588;2023-04-24T13:40:52;0.80;;;0.70;;
5608;SDS011;2826;51.354;9.588;2023-04-24T13:43:19;0.80;;;0.70;;
5608;SDS011;2826;51.354;9.588;2023-04-24T13:45:46;0.90;;;0.80;;
5608;SDS011;2826;51.354;9.588;2023-04-24T13:48:12;0.80;;;0.60;;
5608;SDS011;2826;51.354;9.588;2023-04-24T13:50:40;0.80;;;0.77;;
5608;SDS011;2826;51.354;9.588;2023-04-24T13:53:07;0.80;;;0.77;;
5608;SDS011;2826;51.354;9.588;2023-04-24T13:55:34;0.80;;;0.67;;
5608;SDS011;2826;51.354;9.588;2023-04-24T13:58:02;3.43;;;0.83;;
5608;SDS011;2826;51.354;9.588;2023-04-24T14:00:28;0.80;;;0.70;;
5608;SDS011;2826;51.354;9.588;2023-04-24T14:02:56;0.80;;;0.70;;
5608;SDS011;2826;51.354;9.588;2023-04-24T14:05:22;0.90;;;0.90;;
5608;SDS011;2826;51.354;9.588;2023-04-24T14:07:50;1.00;;;0.90;;
5608;SDS011;2826;51.354;9.588;2023-04-24T14:10:17;0.80;;;0.73;;
5608;SDS011;2826;51.354;9.588;2023-04-24T14:12:44;1.10;;;1.00;;
5608;SDS011;2826;51.354;9.588;2023-04-24T14:15:11;1.00;;;0.90;;
5608;SDS011;2826;51.354;9.588;2023-04-24T14:17:38;1.00;;;0.90;;
5608;SDS011;2826;51.354;9.588;2023-04-24T14:20:05;0.87;;;0.80;;
5608;SDS011;2826;51.354;9.588;2023-04-24T14:22:34;1.13;;;0.90;;
5608;SDS011;2826;51.354;9.588;2023-04-24T14:25:00;1.00;;;0.90;;
5608;SDS011;2826;51.354;9.588;2023-04-24T14:27:27;1.23;;;1.13;;
5608;SDS011;2826;51.354;9.588;2023-04-24T14:29:55;6.67;;;1.10;;
5608;SDS011;2826;51.354;9.588;2023-04-24T14:32:22;1.10;;;1.00;;
5608;SDS011;2826;51.354;9.588;2023-04-24T14:34:48;1.20;;;1.10;;
5608;SDS011;2826;51.354;9.588;2023-04-24T14:37:15;1.37;;;1.27;;
5608;SDS011;2826;51.354;9.588;2023-04-24T14:39:41;1.60;;;1.10;;
5608;SDS011;2826;51.354;9.588;2023-04-24T14:42:08;2.00;;;1.30;;
5608;SDS011;2826;51.354;9.588;2023-04-24T14:44:35;1.43;;;1.33;;
5608;SDS011;2826;51.354;9.588;2023-04-24T14:47:02;1.80;;;1.63;;
5608;SDS011;2826;51.354;9.588;2023-04-24T14:49:29;3.70;;;2.80;;
5608;SDS011;2826;51.354;9.588;2023-04-24T14:51:55;1.67;;;1.50;;
5608;SDS011;2826;51.354;9.588;2023-04-24T14:54:22;2.10;;;1.90;;
5608;SDS011;2826;51.354;9.588;2023-04-24T14:56:49;1.90;;;1.80;;
5608;SDS011;2826;51.354;9.588;2023-04-24T14:59:15;2.80;;;2.27;;
5608;SDS011;2826;51.354;9.588;2023-04-24T15:01:42;1.67;;;1.57;;
5608;SDS011;2826;51.354;9.588;2023-04-24T15:04:10;2.27;;;2.07;;
5608;SDS011;2826;51.354;9.588;2023-04-24T15:06:36;3.80;;;2.50;;
5608;SDS011;2826;51.354;9.588;2023-04-24T15:09:03;3.50;;;2.20;;
5608;SDS011;2826;51.354;9.588;2023-04-24T15:11:30;4.70;;;2.80;;
5608;SDS011;2826;51.354;9.588;2023-04-24T15:13:56;3.57;;;2.47;;
5608;SDS011;2826;51.354;9.588;2023-04-24T15:16:23;4.80;;;2.73;;
5608;SDS011;2826;51.354;9.588;2023-04-24T15:18:49;8.03;;;3.13;;
5608;SDS011;2826;51.354;9.588;2023-04-24T15:21:17;3.60;;;2.13;;
5608;SDS011;2826;51.354;9.588;2023-04-24T15:23:44;4.60;;;2.90;;
5608;SDS011;2826;51.354;9.588;2023-04-24T15:26:11;4.50;;;3.03;;